Terminal Aerodrome Forecast
Issued by NWS Shreveport, LA

Home | Current Version | Previous Version | Text Only | Print | Product List | Glossary On
Versions: 1 2 3 4 5 6 7 8 9 10 11 12 13 14 15 16 17 18 19 20 21
000
FTUS44 KSHV 182203 AAA
TAFTYR
TAF AMD
KTYR 182203Z 1822/1918 15005KT 6SM BR OVC010
     FM190200 13006KT 1SM BR VCSH OVC003
     FM190500 17005KT 1SM -SHRA BR VCTS OVC003CB
     FM191600 18005KT 3SM -TSRA OVC003CB=

USA.gov is the U.S. government's official web portal to all federal, state and local government web resources and services.